sensor_id;sensor_type;location;lat;lon;timestamp;P1;durP1;ratioP1;P2;durP2;ratioP2
7575;SDS011;3829;50.798;4.358;2024-01-15T00:01:16;31.10;;;13.60;;
7575;SDS011;3829;50.798;4.358;2024-01-15T00:03:41;33.57;;;12.83;;
7575;SDS011;3829;50.798;4.358;2024-01-15T00:06:07;28.27;;;12.40;;
7575;SDS011;3829;50.798;4.358;2024-01-15T00:08:32;29.80;;;12.57;;
7575;SDS011;3829;50.798;4.358;2024-01-15T00:10:58;26.00;;;10.27;;
7575;SDS011;3829;50.798;4.358;2024-01-15T00:13:23;34.57;;;11.53;;
7575;SDS011;3829;50.798;4.358;2024-01-15T00:15:49;27.03;;;12.13;;
7575;SDS011;3829;50.798;4.358;2024-01-15T00:18:15;27.20;;;12.20;;
7575;SDS011;3829;50.798;4.358;2024-01-15T00:20:40;26.00;;;11.37;;
7575;SDS011;3829;50.798;4.358;2024-01-15T00:23:06;26.23;;;10.73;;
7575;SDS011;3829;50.798;4.358;2024-01-15T00:25:31;27.97;;;12.03;;
7575;SDS011;3829;50.798;4.358;2024-01-15T00:27:57;25.00;;;10.67;;
7575;SDS011;3829;50.798;4.358;2024-01-15T00:30:22;26.67;;;10.97;;
7575;SDS011;3829;50.798;4.358;2024-01-15T00:32:48;25.47;;;10.47;;
7575;SDS011;3829;50.798;4.358;2024-01-15T00:35:14;30.13;;;11.43;;
7575;SDS011;3829;50.798;4.358;2024-01-15T00:37:39;21.63;;;10.33;;
7575;SDS011;3829;50.798;4.358;2024-01-15T00:40:05;28.10;;;9.93;;
7575;SDS011;3829;50.798;4.358;2024-01-15T00:42:32;24.27;;;9.77;;
7575;SDS011;3829;50.798;4.358;2024-01-15T00:44:58;24.27;;;10.03;;
7575;SDS011;3829;50.798;4.358;2024-01-15T00:47:24;23.60;;;8.87;;
7575;SDS011;3829;50.798;4.358;2024-01-15T00:49:49;24.47;;;9.63;;
7575;SDS011;3829;50.798;4.358;2024-01-15T00:52:15;22.03;;;8.30;;
7575;SDS011;3829;50.798;4.358;2024-01-15T00:54:40;19.20;;;8.93;;
7575;SDS011;3829;50.798;4.358;2024-01-15T00:57:06;18.40;;;8.73;;
7575;SDS011;3829;50.798;4.358;2024-01-15T00:59:31;18.00;;;8.57;;
7575;SDS011;3829;50.798;4.358;2024-01-15T01:01:57;18.70;;;8.50;;
7575;SDS011;3829;50.798;4.358;2024-01-15T01:04:22;20.50;;;9.20;;
7575;SDS011;3829;50.798;4.358;2024-01-15T01:06:48;19.20;;;8.43;;
7575;SDS011;3829;50.798;4.358;2024-01-15T01:09:13;18.73;;;7.93;;
7575;SDS011;3829;50.798;4.358;2024-01-15T01:11:39;17.47;;;9.40;;
7575;SDS011;3829;50.798;4.358;2024-01-15T01:14:05;18.93;;;8.53;;
7575;SDS011;3829;50.798;4.358;2024-01-15T01:16:30;19.37;;;8.47;;
7575;SDS011;3829;50.798;4.358;2024-01-15T01:18:59;20.43;;;8.83;;
7575;SDS011;3829;50.798;4.358;2024-01-15T01:21:24;16.37;;;7.90;;
7575;SDS011;3829;50.798;4.358;2024-01-15T01:23:50;19.50;;;8.77;;
7575;SDS011;3829;50.798;4.358;2024-01-15T01:26:16;21.07;;;8.80;;
7575;SDS011;3829;50.798;4.358;2024-01-15T01:28:42;20.73;;;9.37;;
7575;SDS011;3829;50.798;4.358;2024-01-15T01:31:07;17.07;;;9.07;;
7575;SDS011;3829;50.798;4.358;2024-01-15T01:33:33;18.33;;;9.00;;
7575;SDS011;3829;50.798;4.358;2024-01-15T01:35:59;14.73;;;8.03;;
7575;SDS011;3829;50.798;4.358;2024-01-15T01:38:24;16.87;;;7.50;;
7575;SDS011;3829;50.798;4.358;2024-01-15T01:40:50;18.23;;;9.50;;
7575;SDS011;3829;50.798;4.358;2024-01-15T01:43:15;17.70;;;8.80;;
7575;SDS011;3829;50.798;4.358;2024-01-15T01:45:41;15.00;;;7.97;;
7575;SDS011;3829;50.798;4.358;2024-01-15T01:48:06;21.47;;;7.87;;
7575;SDS011;3829;50.798;4.358;2024-01-15T01:50:32;12.50;;;6.73;;
7575;SDS011;3829;50.798;4.358;2024-01-15T01:52:59;14.13;;;6.83;;
7575;SDS011;3829;50.798;4.358;2024-01-15T01:55:26;16.20;;;7.63;;
7575;SDS011;3829;50.798;4.358;2024-01-15T01:57:54;14.27;;;7.00;;
7575;SDS011;3829;50.798;4.358;2024-01-15T02:00:20;10.67;;;6.47;;
7575;SDS011;3829;50.798;4.358;2024-01-15T02:02:46;21.07;;;7.70;;
7575;SDS011;3829;50.798;4.358;2024-01-15T02:05:12;15.43;;;6.40;;
7575;SDS011;3829;50.798;4.358;2024-01-15T02:07:43;17.93;;;6.63;;
7575;SDS011;3829;50.798;4.358;2024-01-15T02:10:09;11.57;;;6.07;;
7575;SDS011;3829;50.798;4.358;2024-01-15T02:12:35;10.37;;;5.93;;
7575;SDS011;3829;50.798;4.358;2024-01-15T02:15:01;14.43;;;7.03;;
7575;SDS011;3829;50.798;4.358;2024-01-15T02:17:26;14.17;;;6.77;;
7575;SDS011;3829;50.798;4.358;2024-01-15T02:19:52;9.93;;;5.57;;
7575;SDS011;3829;50.798;4.358;2024-01-15T02:22:18;10.27;;;5.60;;
7575;SDS011;3829;50.798;4.358;2024-01-15T02:24:43;16.73;;;5.97;;
7575;SDS011;3829;50.798;4.358;2024-01-15T02:27:09;10.90;;;6.00;;
7575;SDS011;3829;50.798;4.358;2024-01-15T02:29:34;7.60;;;4.80;;
7575;SDS011;3829;50.798;4.358;2024-01-15T02:32:04;9.10;;;5.20;;
7575;SDS011;3829;50.798;4.358;2024-01-15T02:34:32;9.50;;;5.33;;
7575;SDS011;3829;50.798;4.358;2024-01-15T02:36:58;9.87;;;5.97;;
7575;SDS011;3829;50.798;4.358;2024-01-15T02:39:23;18.50;;;6.80;;
7575;SDS011;3829;50.798;4.358;2024-01-15T02:41:49;12.53;;;6.57;;
7575;SDS011;3829;50.798;4.358;2024-01-15T02:44:14;16.63;;;7.03;;
7575;SDS011;3829;50.798;4.358;2024-01-15T02:46:40;16.17;;;7.40;;
7575;SDS011;3829;50.798;4.358;2024-01-15T02:49:05;13.33;;;7.00;;
7575;SDS011;3829;50.798;4.358;2024-01-15T02:51:31;13.13;;;7.67;;
7575;SDS011;3829;50.798;4.358;2024-01-15T02:53:56;21.03;;;7.70;;
7575;SDS011;3829;50.798;4.358;2024-01-15T02:56:22;12.83;;;7.00;;
7575;SDS011;3829;50.798;4.358;2024-01-15T02:58:48;18.60;;;8.10;;
7575;SDS011;3829;50.798;4.358;2024-01-15T03:01:13;14.60;;;8.17;;
7575;SDS011;3829;50.798;4.358;2024-01-15T03:03:39;15.27;;;8.10;;
7575;SDS011;3829;50.798;4.358;2024-01-15T03:06:05;20.17;;;8.93;;
7575;SDS011;3829;50.798;4.358;2024-01-15T03:08:31;16.87;;;8.97;;
7575;SDS011;3829;50.798;4.358;2024-01-15T03:10:56;19.03;;;8.80;;
7575;SDS011;3829;50.798;4.358;2024-01-15T03:13:22;16.77;;;8.73;;
7575;SDS011;3829;50.798;4.358;2024-01-15T03:15:47;15.87;;;8.80;;
7575;SDS011;3829;50.798;4.358;2024-01-15T03:18:13;19.00;;;8.23;;
7575;SDS011;3829;50.798;4.358;2024-01-15T03:20:39;22.53;;;8.70;;
7575;SDS011;3829;50.798;4.358;2024-01-15T03:23:04;18.57;;;8.47;;
7575;SDS011;3829;50.798;4.358;2024-01-15T03:25:30;19.80;;;8.97;;
7575;SDS011;3829;50.798;4.358;2024-01-15T03:27:55;20.10;;;9.37;;
7575;SDS011;3829;50.798;4.358;2024-01-15T03:30:21;21.70;;;9.53;;
7575;SDS011;3829;50.798;4.358;2024-01-15T03:32:46;20.50;;;9.90;;
7575;SDS011;3829;50.798;4.358;2024-01-15T03:35:12;20.10;;;9.40;;
7575;SDS011;3829;50.798;4.358;2024-01-15T03:37:38;20.23;;;10.10;;
7575;SDS011;3829;50.798;4.358;2024-01-15T03:40:03;22.03;;;10.53;;
7575;SDS011;3829;50.798;4.358;2024-01-15T03:42:29;23.03;;;10.73;;
7575;SDS011;3829;50.798;4.358;2024-01-15T03:44:55;21.50;;;10.53;;
7575;SDS011;3829;50.798;4.358;2024-01-15T03:47:20;26.00;;;10.87;;
7575;SDS011;3829;50.798;4.358;2024-01-15T03:49:46;26.57;;;10.67;;
7575;SDS011;3829;50.798;4.358;2024-01-15T03:52:11;27.23;;;12.27;;
7575;SDS011;3829;50.798;4.358;2024-01-15T03:54:37;24.43;;;11.03;;
7575;SDS011;3829;50.798;4.358;2024-01-15T03:57:03;27.80;;;11.83;;
7575;SDS011;3829;50.798;4.358;2024-01-15T03:59:28;22.83;;;10.60;;
7575;SDS011;3829;50.798;4.358;2024-01-15T04:01:54;24.53;;;11.17;;
7575;SDS011;3829;50.798;4.358;2024-01-15T04:04:19;29.53;;;12.43;;
7575;SDS011;3829;50.798;4.358;2024-01-15T04:06:45;27.20;;;11.83;;
7575;SDS011;3829;50.798;4.358;2024-01-15T04:09:12;25.17;;;12.80;;
7575;SDS011;3829;50.798;4.358;2024-01-15T04:11:38;25.27;;;11.63;;
7575;SDS011;3829;50.798;4.358;2024-01-15T04:14:05;24.13;;;11.87;;
7575;SDS011;3829;50.798;4.358;2024-01-15T04:16:30;31.43;;;13.77;;
7575;SDS011;3829;50.798;4.358;2024-01-15T04:18:56;27.23;;;11.37;;
7575;SDS011;3829;50.798;4.358;2024-01-15T04:21:21;24.93;;;12.40;;
7575;SDS011;3829;50.798;4.358;2024-01-15T04:23:47;31.17;;;12.70;;
7575;SDS011;3829;50.798;4.358;2024-01-15T04:26:12;28.67;;;12.93;;
7575;SDS011;3829;50.798;4.358;2024-01-15T04:28:38;25.33;;;12.30;;
7575;SDS011;3829;50.798;4.358;2024-01-15T04:31:03;23.37;;;11.10;;
7575;SDS011;3829;50.798;4.358;2024-01-15T04:33:29;25.00;;;11.50;;
7575;SDS011;3829;50.798;4.358;2024-01-15T04:35:54;30.67;;;12.50;;
7575;SDS011;3829;50.798;4.358;2024-01-15T04:38:20;26.43;;;11.20;;
7575;SDS011;3829;50.798;4.358;2024-01-15T04:40:45;25.80;;;11.30;;
7575;SDS011;3829;50.798;4.358;2024-01-15T04:43:11;28.23;;;11.63;;
7575;SDS011;3829;50.798;4.358;2024-01-15T04:45:37;22.57;;;11.83;;
7575;SDS011;3829;50.798;4.358;2024-01-15T04:48:02;26.20;;;12.30;;
7575;SDS011;3829;50.798;4.358;2024-01-15T04:50:28;18.83;;;9.80;;
7575;SDS011;3829;50.798;4.358;2024-01-15T04:52:53;22.83;;;9.00;;
7575;SDS011;3829;50.798;4.358;2024-01-15T04:55:19;23.50;;;8.47;;
7575;SDS011;3829;50.798;4.358;2024-01-15T04:57:44;20.20;;;9.87;;
7575;SDS011;3829;50.798;4.358;2024-01-15T05:00:11;14.90;;;7.17;;
7575;SDS011;3829;50.798;4.358;2024-01-15T05:02:38;19.10;;;8.33;;
7575;SDS011;3829;50.798;4.358;2024-01-15T05:05:03;16.70;;;6.30;;
7575;SDS011;3829;50.798;4.358;2024-01-15T05:07:30;12.97;;;6.40;;
7575;SDS011;3829;50.798;4.358;2024-01-15T05:09:56;12.73;;;5.70;;
7575;SDS011;3829;50.798;4.358;2024-01-15T05:12:21;16.53;;;5.60;;
7575;SDS011;3829;50.798;4.358;2024-01-15T05:14:47;10.47;;;5.10;;
7575;SDS011;3829;50.798;4.358;2024-01-15T05:17:13;10.17;;;5.27;;
7575;SDS011;3829;50.798;4.358;2024-01-15T05:19:38;10.73;;;4.43;;
7575;SDS011;3829;50.798;4.358;2024-01-15T05:22:04;10.40;;;5.17;;
7575;SDS011;3829;50.798;4.358;2024-01-15T05:24:29;6.77;;;4.57;;
7575;SDS011;3829;50.798;4.358;2024-01-15T05:26:55;9.77;;;5.50;;
7575;SDS011;3829;50.798;4.358;2024-01-15T05:29:20;10.00;;;5.10;;
7575;SDS011;3829;50.798;4.358;2024-01-15T05:31:46;9.47;;;4.63;;
7575;SDS011;3829;50.798;4.358;2024-01-15T05:34:11;11.50;;;5.53;;
7575;SDS011;3829;50.798;4.358;2024-01-15T05:36:37;10.63;;;5.00;;
7575;SDS011;3829;50.798;4.358;2024-01-15T05:39:02;12.07;;;5.13;;
7575;SDS011;3829;50.798;4.358;2024-01-15T05:41:28;11.97;;;5.97;;
7575;SDS011;3829;50.798;4.358;2024-01-15T05:43:54;18.77;;;6.20;;
7575;SDS011;3829;50.798;4.358;2024-01-15T05:46:19;15.97;;;5.93;;
7575;SDS011;3829;50.798;4.358;2024-01-15T05:48:45;9.47;;;6.17;;
7575;SDS011;3829;50.798;4.358;2024-01-15T05:51:10;11.83;;;5.47;;
7575;SDS011;3829;50.798;4.358;2024-01-15T05:53:37;9.27;;;4.77;;
7575;SDS011;3829;50.798;4.358;2024-01-15T05:56:05;9.57;;;5.10;;
7575;SDS011;3829;50.798;4.358;2024-01-15T05:58:31;6.83;;;3.83;;
7575;SDS011;3829;50.798;4.358;2024-01-15T06:00:56;11.47;;;4.17;;
7575;SDS011;3829;50.798;4.358;2024-01-15T06:03:22;4.80;;;3.00;;
7575;SDS011;3829;50.798;4.358;2024-01-15T06:05:47;5.07;;;2.60;;
7575;SDS011;3829;50.798;4.358;2024-01-15T06:08:13;4.73;;;2.83;;
7575;SDS011;3829;50.798;4.358;2024-01-15T06:10:39;4.80;;;2.30;;
7575;SDS011;3829;50.798;4.358;2024-01-15T06:13:05;3.47;;;2.23;;
7575;SDS011;3829;50.798;4.358;2024-01-15T06:15:30;7.33;;;2.83;;
7575;SDS011;3829;50.798;4.358;2024-01-15T06:17:56;10.47;;;3.90;;
7575;SDS011;3829;50.798;4.358;2024-01-15T06:20:21;6.87;;;3.53;;
7575;SDS011;3829;50.798;4.358;2024-01-15T06:22:47;10.87;;;4.10;;
7575;SDS011;3829;50.798;4.358;2024-01-15T06:25:12;11.40;;;4.80;;
7575;SDS011;3829;50.798;4.358;2024-01-15T06:27:38;9.93;;;3.97;;
7575;SDS011;3829;50.798;4.358;2024-01-15T06:30:04;11.27;;;4.97;;
7575;SDS011;3829;50.798;4.358;2024-01-15T06:32:30;9.87;;;5.17;;
7575;SDS011;3829;50.798;4.358;2024-01-15T06:34:55;8.27;;;4.67;;
7575;SDS011;3829;50.798;4.358;2024-01-15T06:37:21;10.17;;;5.90;;
7575;SDS011;3829;50.798;4.358;2024-01-15T06:39:47;10.33;;;6.47;;
7575;SDS011;3829;50.798;4.358;2024-01-15T06:42:12;9.57;;;5.80;;
7575;SDS011;3829;50.798;4.358;2024-01-15T06:44:38;12.57;;;6.50;;
7575;SDS011;3829;50.798;4.358;2024-01-15T06:47:03;14.13;;;7.33;;
7575;SDS011;3829;50.798;4.358;2024-01-15T06:49:30;12.77;;;7.33;;
7575;SDS011;3829;50.798;4.358;2024-01-15T06:51:56;12.40;;;7.37;;
7575;SDS011;3829;50.798;4.358;2024-01-15T06:54:21;13.77;;;7.73;;
7575;SDS011;3829;50.798;4.358;2024-01-15T06:56:47;14.03;;;7.10;;
7575;SDS011;3829;50.798;4.358;2024-01-15T06:59:12;16.73;;;8.93;;
7575;SDS011;3829;50.798;4.358;2024-01-15T07:01:38;20.00;;;8.93;;
7575;SDS011;3829;50.798;4.358;2024-01-15T07:04:03;14.63;;;8.00;;
7575;SDS011;3829;50.798;4.358;2024-01-15T07:06:29;20.90;;;12.13;;
7575;SDS011;3829;50.798;4.358;2024-01-15T07:08:55;14.20;;;7.03;;
7575;SDS011;3829;50.798;4.358;2024-01-15T07:11:21;12.33;;;6.33;;
7575;SDS011;3829;50.798;4.358;2024-01-15T07:13:47;11.40;;;6.00;;
7575;SDS011;3829;50.798;4.358;2024-01-15T07:16:13;12.47;;;6.27;;
7575;SDS011;3829;50.798;4.358;2024-01-15T07:18:38;16.30;;;5.97;;
7575;SDS011;3829;50.798;4.358;2024-01-15T07:21:04;11.43;;;5.97;;
7575;SDS011;3829;50.798;4.358;2024-01-15T07:23:30;11.83;;;6.73;;
7575;SDS011;3829;50.798;4.358;2024-01-15T07:25:56;10.13;;;5.97;;
7575;SDS011;3829;50.798;4.358;2024-01-15T07:28:22;15.57;;;6.30;;
7575;SDS011;3829;50.798;4.358;2024-01-15T07:30:48;10.07;;;5.83;;
7575;SDS011;3829;50.798;4.358;2024-01-15T07:33:13;13.47;;;5.63;;
7575;SDS011;3829;50.798;4.358;2024-01-15T07:35:39;12.37;;;6.03;;
7575;SDS011;3829;50.798;4.358;2024-01-15T07:38:04;14.40;;;6.27;;
7575;SDS011;3829;50.798;4.358;2024-01-15T07:40:30;12.43;;;7.03;;
7575;SDS011;3829;50.798;4.358;2024-01-15T07:42:56;15.20;;;6.37;;
7575;SDS011;3829;50.798;4.358;2024-01-15T07:45:21;15.53;;;6.73;;
7575;SDS011;3829;50.798;4.358;2024-01-15T07:47:47;9.57;;;6.23;;
7575;SDS011;3829;50.798;4.358;2024-01-15T07:50:12;14.07;;;6.60;;
7575;SDS011;3829;50.798;4.358;2024-01-15T07:52:39;13.10;;;6.60;;
7575;SDS011;3829;50.798;4.358;2024-01-15T07:55:06;14.83;;;7.27;;
7575;SDS011;3829;50.798;4.358;2024-01-15T07:57:32;12.67;;;6.57;;
7575;SDS011;3829;50.798;4.358;2024-01-15T07:59:58;15.77;;;6.40;;
7575;SDS011;3829;50.798;4.358;2024-01-15T08:02:23;16.67;;;7.00;;
7575;SDS011;3829;50.798;4.358;2024-01-15T08:04:49;15.10;;;7.00;;
7575;SDS011;3829;50.798;4.358;2024-01-15T08:07:14;13.63;;;6.87;;
7575;SDS011;3829;50.798;4.358;2024-01-15T08:09:40;11.23;;;5.77;;
7575;SDS011;3829;50.798;4.358;2024-01-15T08:12:06;18.47;;;6.47;;
7575;SDS011;3829;50.798;4.358;2024-01-15T08:14:32;11.77;;;5.73;;
7575;SDS011;3829;50.798;4.358;2024-01-15T08:16:58;13.07;;;5.87;;
7575;SDS011;3829;50.798;4.358;2024-01-15T08:19:23;10.47;;;5.50;;
7575;SDS011;3829;50.798;4.358;2024-01-15T08:21:49;8.43;;;4.83;;
7575;SDS011;3829;50.798;4.358;2024-01-15T08:24:15;9.63;;;4.97;;
7575;SDS011;3829;50.798;4.358;2024-01-15T08:26:41;13.27;;;5.33;;
7575;SDS011;3829;50.798;4.358;2024-01-15T08:29:07;10.13;;;4.67;;
7575;SDS011;3829;50.798;4.358;2024-01-15T08:31:32;9.50;;;3.83;;
7575;SDS011;3829;50.798;4.358;2024-01-15T08:33:58;8.63;;;4.30;;
7575;SDS011;3829;50.798;4.358;2024-01-15T08:36:24;5.23;;;4.30;;
7575;SDS011;3829;50.798;4.358;2024-01-15T08:38:50;5.17;;;3.37;;
7575;SDS011;3829;50.798;4.358;2024-01-15T08:41:15;12.43;;;3.93;;
7575;SDS011;3829;50.798;4.358;2024-01-15T08:43:41;9.27;;;3.57;;
7575;SDS011;3829;50.798;4.358;2024-01-15T08:46:06;9.13;;;3.73;;
7575;SDS011;3829;50.798;4.358;2024-01-15T08:48:32;9.33;;;3.90;;
7575;SDS011;3829;50.798;4.358;2024-01-15T08:50:58;10.03;;;3.43;;
7575;SDS011;3829;50.798;4.358;2024-01-15T08:53:23;6.20;;;3.37;;
7575;SDS011;3829;50.798;4.358;2024-01-15T08:55:49;10.17;;;3.47;;
7575;SDS011;3829;50.798;4.358;2024-01-15T08:58:15;9.10;;;4.80;;
7575;SDS011;3829;50.798;4.358;2024-01-15T09:00:41;17.60;;;3.73;;
7575;SDS011;3829;50.798;4.358;2024-01-15T09:03:07;9.77;;;3.70;;
7575;SDS011;3829;50.798;4.358;2024-01-15T09:05:33;4.83;;;3.10;;
7575;SDS011;3829;50.798;4.358;2024-01-15T09:08:02;13.13;;;3.90;;
7575;SDS011;3829;50.798;4.358;2024-01-15T09:10:28;7.00;;;3.73;;
7575;SDS011;3829;50.798;4.358;2024-01-15T09:12:54;7.60;;;3.60;;
7575;SDS011;3829;50.798;4.358;2024-01-15T09:15:19;10.63;;;3.67;;
7575;SDS011;3829;50.798;4.358;2024-01-15T09:17:45;8.33;;;3.47;;
7575;SDS011;3829;50.798;4.358;2024-01-15T09:20:11;10.10;;;3.37;;
7575;SDS011;3829;50.798;4.358;2024-01-15T09:22:38;9.27;;;3.37;;
7575;SDS011;3829;50.798;4.358;2024-01-15T09:25:05;8.27;;;3.70;;
7575;SDS011;3829;50.798;4.358;2024-01-15T09:27:31;10.53;;;3.93;;
7575;SDS011;3829;50.798;4.358;2024-01-15T09:29:57;7.70;;;3.00;;
7575;SDS011;3829;50.798;4.358;2024-01-15T09:32:23;12.53;;;3.40;;
7575;SDS011;3829;50.798;4.358;2024-01-15T09:34:48;9.30;;;3.10;;
7575;SDS011;3829;50.798;4.358;2024-01-15T09:37:14;7.80;;;3.63;;
7575;SDS011;3829;50.798;4.358;2024-01-15T09:39:40;4.17;;;3.20;;
7575;SDS011;3829;50.798;4.358;2024-01-15T09:42:06;10.10;;;2.93;;
7575;SDS011;3829;50.798;4.358;2024-01-15T09:44:32;5.00;;;3.13;;
7575;SDS011;3829;50.798;4.358;2024-01-15T09:46:58;4.40;;;2.90;;
7575;SDS011;3829;50.798;4.358;2024-01-15T09:49:25;8.30;;;2.40;;
7575;SDS011;3829;50.798;4.358;2024-01-15T09:51:50;3.83;;;2.20;;
7575;SDS011;3829;50.798;4.358;2024-01-15T09:54:16;9.00;;;2.70;;
7575;SDS011;3829;50.798;4.358;2024-01-15T09:56:45;10.40;;;2.60;;
7575;SDS011;3829;50.798;4.358;2024-01-15T09:59:13;7.97;;;2.87;;
7575;SDS011;3829;50.798;4.358;2024-01-15T10:01:40;5.80;;;2.67;;
7575;SDS011;3829;50.798;4.358;2024-01-15T10:04:08;6.70;;;2.27;;
7575;SDS011;3829;50.798;4.358;2024-01-15T10:06:33;5.20;;;2.40;;
7575;SDS011;3829;50.798;4.358;2024-01-15T10:08:59;4.60;;;2.73;;
7575;SDS011;3829;50.798;4.358;2024-01-15T10:11:25;8.80;;;2.20;;
7575;SDS011;3829;50.798;4.358;2024-01-15T10:13:51;10.07;;;2.73;;
7575;SDS011;3829;50.798;4.358;2024-01-15T10:16:19;5.07;;;2.17;;
7575;SDS011;3829;50.798;4.358;2024-01-15T10:18:45;7.63;;;2.30;;
7575;SDS011;3829;50.798;4.358;2024-01-15T10:21:10;5.80;;;2.70;;
7575;SDS011;3829;50.798;4.358;2024-01-15T10:23:36;4.07;;;2.27;;
7575;SDS011;3829;50.798;4.358;2024-01-15T10:26:02;12.10;;;2.60;;
7575;SDS011;3829;50.798;4.358;2024-01-15T10:28:28;5.13;;;2.23;;
7575;SDS011;3829;50.798;4.358;2024-01-15T10:30:56;3.83;;;1.97;;
7575;SDS011;3829;50.798;4.358;2024-01-15T10:33:24;5.67;;;2.93;;
7575;SDS011;3829;50.798;4.358;2024-01-15T10:35:53;3.60;;;1.93;;
7575;SDS011;3829;50.798;4.358;2024-01-15T10:38:20;7.70;;;2.20;;
7575;SDS011;3829;50.798;4.358;2024-01-15T10:40:47;7.73;;;2.53;;
7575;SDS011;3829;50.798;4.358;2024-01-15T10:43:15;7.70;;;3.00;;
7575;SDS011;3829;50.798;4.358;2024-01-15T10:45:43;4.23;;;2.63;;
7575;SDS011;3829;50.798;4.358;2024-01-15T10:48:10;11.53;;;3.40;;
7575;SDS011;3829;50.798;4.358;2024-01-15T10:50:35;3.73;;;2.50;;
7575;SDS011;3829;50.798;4.358;2024-01-15T10:53:01;6.70;;;3.47;;
7575;SDS011;3829;50.798;4.358;2024-01-15T10:55:29;4.40;;;2.27;;
7575;SDS011;3829;50.798;4.358;2024-01-15T10:57:57;5.90;;;3.17;;
7575;SDS011;3829;50.798;4.358;2024-01-15T11:00:24;10.60;;;2.73;;
7575;SDS011;3829;50.798;4.358;2024-01-15T11:02:50;5.40;;;2.07;;
7575;SDS011;3829;50.798;4.358;2024-01-15T11:05:16;4.00;;;2.77;;
7575;SDS011;3829;50.798;4.358;2024-01-15T11:07:47;8.23;;;2.40;;
7575;SDS011;3829;50.798;4.358;2024-01-15T11:12:59;6.00;;;2.47;;
7575;SDS011;3829;50.798;4.358;2024-01-15T11:15:24;7.33;;;2.27;;
7575;SDS011;3829;50.798;4.358;2024-01-15T11:17:58;4.67;;;2.23;;
7575;SDS011;3829;50.798;4.358;2024-01-15T11:20:25;3.50;;;1.73;;
7575;SDS011;3829;50.798;4.358;2024-01-15T11:22:51;6.47;;;1.93;;
7575;SDS011;3829;50.798;4.358;2024-01-15T11:25:18;13.77;;;2.13;;
7575;SDS011;3829;50.798;4.358;2024-01-15T11:27:45;6.40;;;2.00;;
7575;SDS011;3829;50.798;4.358;2024-01-15T11:30:13;4.80;;;2.57;;
7575;SDS011;3829;50.798;4.358;2024-01-15T11:32:39;5.40;;;2.53;;
7575;SDS011;3829;50.798;4.358;2024-01-15T11:35:07;7.07;;;2.87;;
7575;SDS011;3829;50.798;4.358;2024-01-15T11:43:03;4.43;;;2.57;;
7575;SDS011;3829;50.798;4.358;2024-01-15T11:45:29;6.33;;;2.60;;
7575;SDS011;3829;50.798;4.358;2024-01-15T11:50:38;8.40;;;2.53;;
7575;SDS011;3829;50.798;4.358;2024-01-15T11:53:07;4.60;;;1.90;;
7575;SDS011;3829;50.798;4.358;2024-01-15T11:55:43;5.07;;;2.10;;
7575;SDS011;3829;50.798;4.358;2024-01-15T11:58:11;3.20;;;2.50;;
7575;SDS011;3829;50.798;4.358;2024-01-15T12:00:40;5.33;;;2.63;;
7575;SDS011;3829;50.798;4.358;2024-01-15T12:03:07;4.37;;;2.17;;
7575;SDS011;3829;50.798;4.358;2024-01-15T12:05:36;3.20;;;2.00;;
7575;SDS011;3829;50.798;4.358;2024-01-15T12:08:02;5.20;;;1.90;;
7575;SDS011;3829;50.798;4.358;2024-01-15T12:10:28;7.80;;;1.97;;
7575;SDS011;3829;50.798;4.358;2024-01-15T12:13:12;4.67;;;1.60;;
7575;SDS011;3829;50.798;4.358;2024-01-15T12:15:39;6.40;;;2.10;;
7575;SDS011;3829;50.798;4.358;2024-01-15T12:18:07;8.90;;;2.53;;
7575;SDS011;3829;50.798;4.358;2024-01-15T12:20:34;3.20;;;2.67;;
7575;SDS011;3829;50.798;4.358;2024-01-15T12:23:00;3.23;;;1.73;;
7575;SDS011;3829;50.798;4.358;2024-01-15T12:25:26;6.53;;;2.40;;
7575;SDS011;3829;50.798;4.358;2024-01-15T12:27:53;9.20;;;2.70;;
7575;SDS011;3829;50.798;4.358;2024-01-15T12:30:19;8.53;;;2.20;;
7575;SDS011;3829;50.798;4.358;2024-01-15T12:32:45;5.63;;;1.63;;
7575;SDS011;3829;50.798;4.358;2024-01-15T12:35:12;12.97;;;1.77;;
7575;SDS011;3829;50.798;4.358;2024-01-15T12:37:39;4.63;;;1.70;;
7575;SDS011;3829;50.798;4.358;2024-01-15T12:40:05;8.63;;;2.47;;
7575;SDS011;3829;50.798;4.358;2024-01-15T12:42:33;5.47;;;2.17;;
7575;SDS011;3829;50.798;4.358;2024-01-15T12:44:59;6.97;;;1.60;;
7575;SDS011;3829;50.798;4.358;2024-01-15T12:47:25;6.13;;;1.80;;
7575;SDS011;3829;50.798;4.358;2024-01-15T12:49:51;5.90;;;2.30;;
7575;SDS011;3829;50.798;4.358;2024-01-15T12:52:19;5.43;;;2.00;;
7575;SDS011;3829;50.798;4.358;2024-01-15T12:54:46;7.40;;;1.67;;
7575;SDS011;3829;50.798;4.358;2024-01-15T12:57:13;8.23;;;2.20;;
7575;SDS011;3829;50.798;4.358;2024-01-15T12:59:39;3.90;;;1.80;;
7575;SDS011;3829;50.798;4.358;2024-01-15T13:02:05;4.87;;;2.17;;
7575;SDS011;3829;50.798;4.358;2024-01-15T13:04:31;1.57;;;1.37;;
7575;SDS011;3829;50.798;4.358;2024-01-15T13:06:57;4.00;;;1.47;;
7575;SDS011;3829;50.798;4.358;2024-01-15T13:09:23;4.07;;;1.70;;
7575;SDS011;3829;50.798;4.358;2024-01-15T13:11:48;3.77;;;1.67;;
7575;SDS011;3829;50.798;4.358;2024-01-15T13:14:14;7.83;;;2.23;;
7575;SDS011;3829;50.798;4.358;2024-01-15T13:16:40;4.00;;;1.83;;
7575;SDS011;3829;50.798;4.358;2024-01-15T13:19:07;4.07;;;1.80;;
7575;SDS011;3829;50.798;4.358;2024-01-15T13:21:36;3.70;;;1.80;;
7575;SDS011;3829;50.798;4.358;2024-01-15T13:24:02;11.27;;;2.40;;
7575;SDS011;3829;50.798;4.358;2024-01-15T13:26:30;8.67;;;1.77;;
7575;SDS011;3829;50.798;4.358;2024-01-15T13:28:56;10.57;;;1.70;;
7575;SDS011;3829;50.798;4.358;2024-01-15T13:31:22;6.17;;;2.07;;
7575;SDS011;3829;50.798;4.358;2024-01-15T13:33:48;8.43;;;1.87;;
7575;SDS011;3829;50.798;4.358;2024-01-15T13:36:13;9.67;;;2.13;;
7575;SDS011;3829;50.798;4.358;2024-01-15T13:38:39;8.87;;;2.10;;
7575;SDS011;3829;50.798;4.358;2024-01-15T13:41:05;3.03;;;1.93;;
7575;SDS011;3829;50.798;4.358;2024-01-15T13:43:31;7.10;;;2.33;;
7575;SDS011;3829;50.798;4.358;2024-01-15T13:45:58;7.13;;;1.90;;
7575;SDS011;3829;50.798;4.358;2024-01-15T13:48:24;7.97;;;1.97;;
7575;SDS011;3829;50.798;4.358;2024-01-15T13:50:51;8.13;;;2.33;;
7575;SDS011;3829;50.798;4.358;2024-01-15T13:53:17;3.07;;;1.60;;
7575;SDS011;3829;50.798;4.358;2024-01-15T13:55:44;7.37;;;2.50;;
7575;SDS011;3829;50.798;4.358;2024-01-15T13:58:09;7.20;;;2.83;;
7575;SDS011;3829;50.798;4.358;2024-01-15T14:00:35;6.83;;;2.07;;
7575;SDS011;3829;50.798;4.358;2024-01-15T14:03:01;7.10;;;2.27;;
7575;SDS011;3829;50.798;4.358;2024-01-15T14:05:26;5.87;;;1.77;;
7575;SDS011;3829;50.798;4.358;2024-01-15T14:07:53;3.23;;;2.10;;
7575;SDS011;3829;50.798;4.358;2024-01-15T14:10:19;5.30;;;2.10;;
7575;SDS011;3829;50.798;4.358;2024-01-15T14:12:45;3.47;;;1.67;;
7575;SDS011;3829;50.798;4.358;2024-01-15T14:15:11;8.17;;;2.73;;
7575;SDS011;3829;50.798;4.358;2024-01-15T14:17:37;4.67;;;2.10;;
7575;SDS011;3829;50.798;4.358;2024-01-15T14:20:03;8.00;;;2.67;;
7575;SDS011;3829;50.798;4.358;2024-01-15T14:22:30;6.33;;;2.40;;
7575;SDS011;3829;50.798;4.358;2024-01-15T14:24:55;11.57;;;2.17;;
7575;SDS011;3829;50.798;4.358;2024-01-15T14:27:21;4.97;;;2.43;;
7575;SDS011;3829;50.798;4.358;2024-01-15T14:29:47;4.23;;;1.70;;
7575;SDS011;3829;50.798;4.358;2024-01-15T14:32:12;2.93;;;2.37;;
7575;SDS011;3829;50.798;4.358;2024-01-15T14:34:38;7.47;;;2.10;;
7575;SDS011;3829;50.798;4.358;2024-01-15T14:37:03;8.97;;;2.70;;
7575;SDS011;3829;50.798;4.358;2024-01-15T14:39:29;5.33;;;3.37;;
7575;SDS011;3829;50.798;4.358;2024-01-15T14:41:57;6.93;;;2.73;;
7575;SDS011;3829;50.798;4.358;2024-01-15T14:44:22;11.77;;;4.20;;
7575;SDS011;3829;50.798;4.358;2024-01-15T14:46:47;8.00;;;2.50;;
7575;SDS011;3829;50.798;4.358;2024-01-15T14:49:13;7.80;;;2.77;;
7575;SDS011;3829;50.798;4.358;2024-01-15T14:51:39;4.80;;;2.30;;
7575;SDS011;3829;50.798;4.358;2024-01-15T14:54:05;5.53;;;2.83;;
7575;SDS011;3829;50.798;4.358;2024-01-15T14:56:30;6.40;;;2.10;;
7575;SDS011;3829;50.798;4.358;2024-01-15T14:58:56;2.93;;;1.67;;
7575;SDS011;3829;50.798;4.358;2024-01-15T15:01:22;2.63;;;2.23;;
7575;SDS011;3829;50.798;4.358;2024-01-15T15:03:48;4.57;;;2.00;;
7575;SDS011;3829;50.798;4.358;2024-01-15T15:06:13;3.73;;;1.90;;
7575;SDS011;3829;50.798;4.358;2024-01-15T15:08:39;3.17;;;2.43;;